createdAt,value
2018-06-16T00:00:49.165Z,23.03
2018-06-16T00:03:17.819Z,23.60
2018-06-16T00:05:46.162Z,23.73
2018-06-16T00:08:14.282Z,23.70
2018-06-16T00:10:42.403Z,24.87
2018-06-16T00:13:10.546Z,25.10
2018-06-16T00:15:38.723Z,25.87
2018-06-16T00:18:06.846Z,25.57
2018-06-16T00:20:35.015Z,27.10
2018-06-16T00:23:03.197Z,25.07
2018-06-16T00:25:31.453Z,25.57
2018-06-16T00:27:59.572Z,23.93
2018-06-16T00:30:28.395Z,24.73
2018-06-16T00:32:56.545Z,24.70
2018-06-16T00:35:24.691Z,24.67
2018-06-16T00:37:52.814Z,25.10
2018-06-16T00:40:21.029Z,25.23
2018-06-16T00:42:49.165Z,24.43
2018-06-16T00:45:17.302Z,23.50
2018-06-16T00:47:45.416Z,24.57
2018-06-16T00:50:13.545Z,25.27
2018-06-16T00:52:41.689Z,24.50
2018-06-16T00:55:09.827Z,25.43
2018-06-16T00:57:44.096Z,25.27
2018-06-16T01:00:12.238Z,24.23
2018-06-16T01:02:40.721Z,25.30
2018-06-16T01:05:08.925Z,24.73
2018-06-16T01:07:37.305Z,27.03
2018-06-16T01:10:05.773Z,27.27
2018-06-16T01:12:33.885Z,26.20
2018-06-16T01:15:02.035Z,26.40
2018-06-16T01:17:30.163Z,25.77
2018-06-16T01:19:58.825Z,27.33
2018-06-16T01:22:26.960Z,27.07
2018-06-16T01:24:55.177Z,25.73
2018-06-16T01:27:23.291Z,26.53
2018-06-16T01:29:51.392Z,26.17
2018-06-16T01:32:19.666Z,27.33
2018-06-16T01:34:47.865Z,27.60
2018-06-16T01:37:16.086Z,26.23
2018-06-16T01:39:44.196Z,26.07
2018-06-16T01:42:12.546Z,26.60
2018-06-16T01:44:40.679Z,26.47
2018-06-16T01:47:09.191Z,26.30
2018-06-16T01:49:37.502Z,26.13
2018-06-16T01:52:05.724Z,26.10
2018-06-16T01:54:33.941Z,25.60
2018-06-16T01:57:02.098Z,25.77
2018-06-16T01:59:30.249Z,25.97
2018-06-16T02:01:58.446Z,26.07
2018-06-16T02:04:26.598Z,28.37
2018-06-16T02:06:54.781Z,27.33
2018-06-16T02:09:32.297Z,27.67
2018-06-16T02:12:00.715Z,27.93
2018-06-16T02:14:29.761Z,27.07
2018-06-16T02:16:57.901Z,28.37
2018-06-16T02:19:26.041Z,27.63
2018-06-16T02:21:54.152Z,27.87
2018-06-16T02:24:22.290Z,27.90
2018-06-16T02:26:50.437Z,28.70
2018-06-16T02:29:18.530Z,28.07
2018-06-16T02:31:46.718Z,28.60
2018-06-16T02:34:14.879Z,28.23
2018-06-16T02:36:43.000Z,28.80
2018-06-16T02:39:12.199Z,29.20
2018-06-16T02:41:40.574Z,27.70
2018-06-16T02:44:08.862Z,28.67
2018-06-16T02:46:36.983Z,28.23
2018-06-16T02:49:05.226Z,28.57
2018-06-16T02:51:33.402Z,29.53
2018-06-16T02:54:01.561Z,29.07
2018-06-16T02:56:29.742Z,27.97
2018-06-16T02:58:57.900Z,28.57
2018-06-16T03:01:26.009Z,28.30
2018-06-16T03:03:54.199Z,27.77
2018-06-16T03:06:22.384Z,27.87
2018-06-16T03:08:50.514Z,27.73
2018-06-16T03:11:18.819Z,28.30
2018-06-16T03:13:46.993Z,28.90
2018-06-16T03:16:15.144Z,28.57
2018-06-16T03:18:43.425Z,25.20
2018-06-16T03:21:11.574Z,27.87
2018-06-16T03:23:39.791Z,28.37
2018-06-16T03:26:08.011Z,29.00
2018-06-16T03:28:36.172Z,28.20
2018-06-16T03:31:04.322Z,27.73
2018-06-16T03:33:32.482Z,26.97
2018-06-16T03:36:00.643Z,27.87
2018-06-16T03:38:28.766Z,28.53
2018-06-16T03:40:56.912Z,27.93
2018-06-16T03:43:25.155Z,26.97
2018-06-16T03:45:53.343Z,27.33
2018-06-16T03:48:21.487Z,27.53
2018-06-16T03:50:49.687Z,26.43
2018-06-16T03:53:17.871Z,27.67
2018-06-16T03:55:46.030Z,27.33
2018-06-16T03:58:14.329Z,27.17
2018-06-16T04:00:42.674Z,25.87
2018-06-16T04:03:10.822Z,26.43
2018-06-16T04:05:38.963Z,27.33
2018-06-16T04:08:07.162Z,25.90
2018-06-16T04:10:35.326Z,27.13
2018-06-16T04:13:03.466Z,26.20
2018-06-16T04:15:31.628Z,25.73
2018-06-16T04:17:59.769Z,26.27
2018-06-16T04:20:27.933Z,25.13
2018-06-16T04:22:56.058Z,26.00
2018-06-16T04:25:24.185Z,26.37
2018-06-16T04:27:52.322Z,24.70
2018-06-16T04:30:20.475Z,24.70
2018-06-16T04:32:48.690Z,25.73
2018-06-16T04:35:16.837Z,26.20
2018-06-16T04:37:44.994Z,25.57
2018-06-16T04:40:13.130Z,25.00
2018-06-16T04:42:41.269Z,24.67
2018-06-16T04:45:09.449Z,25.53
2018-06-16T04:47:37.661Z,26.10
2018-06-16T04:50:05.853Z,25.17
2018-06-16T04:52:34.006Z,25.07
2018-06-16T04:55:02.158Z,27.43
2018-06-16T04:57:30.363Z,25.30
2018-06-16T04:59:58.501Z,24.20
2018-06-16T05:02:26.694Z,25.40
2018-06-16T05:04:54.819Z,24.87
2018-06-16T05:07:22.990Z,23.33
2018-06-16T05:09:51.150Z,23.17
2018-06-16T05:12:19.316Z,22.10
2018-06-16T05:14:47.462Z,21.60
2018-06-16T05:17:15.633Z,20.83
2018-06-16T05:19:43.766Z,18.73
2018-06-16T05:22:11.910Z,17.90
2018-06-16T05:24:40.649Z,15.00
2018-06-16T05:27:08.784Z,14.80
2018-06-16T05:29:36.941Z,13.70
2018-06-16T05:32:05.446Z,13.60
2018-06-16T05:34:33.562Z,13.13
2018-06-16T05:37:01.717Z,11.70
2018-06-16T05:39:29.897Z,12.53
2018-06-16T05:41:58.059Z,12.00
2018-06-16T05:44:26.194Z,12.37
2018-06-16T05:46:54.342Z,11.57
2018-06-16T05:49:22.510Z,11.77
2018-06-16T05:51:50.874Z,11.93
2018-06-16T05:54:19.089Z,10.83
2018-06-16T05:56:47.296Z,10.37
2018-06-16T05:59:15.543Z,10.83
2018-06-16T06:01:43.734Z,11.90
2018-06-16T06:04:11.902Z,10.93
2018-06-16T06:06:40.030Z,11.00
2018-06-16T06:09:09.253Z,10.40
2018-06-16T06:11:37.450Z,10.40
2018-06-16T06:14:05.953Z,10.30
2018-06-16T06:16:34.121Z,10.97
2018-06-16T06:19:02.276Z,10.70
2018-06-16T06:21:30.479Z,9.83
2018-06-16T06:23:58.663Z,10.50
2018-06-16T06:26:26.821Z,10.37
2018-06-16T06:28:55.010Z,10.03
2018-06-16T06:31:23.186Z,9.70
2018-06-16T06:33:51.370Z,8.57
2018-06-16T06:36:19.503Z,8.93
2018-06-16T06:38:48.798Z,8.20
2018-06-16T06:41:16.933Z,8.78
2018-06-16T06:43:45.510Z,8.38
2018-06-16T06:46:13.658Z,7.97
2018-06-16T06:48:41.787Z,7.87
2018-06-16T06:51:09.926Z,7.67
2018-06-16T06:53:38.042Z,7.53
2018-06-16T06:56:06.337Z,7.15
2018-06-16T06:58:34.511Z,7.22
2018-06-16T07:01:02.758Z,7.42
2018-06-16T07:03:30.909Z,6.78
2018-06-16T07:05:59.075Z,5.97
2018-06-16T07:08:27.208Z,5.58
2018-06-16T07:10:55.409Z,5.62
2018-06-16T07:13:23.498Z,6.20
2018-06-16T07:15:51.622Z,5.50
2018-06-16T07:18:19.756Z,5.12
2018-06-16T07:20:47.901Z,5.50
2018-06-16T07:23:16.062Z,5.05
2018-06-16T07:25:44.178Z,5.30
2018-06-16T07:28:12.399Z,5.33
2018-06-16T07:30:40.521Z,5.17
2018-06-16T07:33:08.668Z,5.22
2018-06-16T07:35:36.865Z,5.60
2018-06-16T07:38:05.158Z,5.75
2018-06-16T07:40:34.774Z,5.45
2018-06-16T07:43:02.962Z,5.35
2018-06-16T07:45:31.146Z,4.95
2018-06-16T07:47:59.309Z,5.47
2018-06-16T07:50:27.519Z,5.30
2018-06-16T07:52:55.716Z,5.03
2018-06-16T07:55:23.885Z,5.28
2018-06-16T07:57:52.015Z,4.72
2018-06-16T08:00:20.145Z,5.10
2018-06-16T08:02:48.262Z,5.42
2018-06-16T08:05:16.400Z,5.55
2018-06-16T08:07:45.221Z,4.85
2018-06-16T08:10:13.354Z,5.90
2018-06-16T08:12:41.602Z,5.30
2018-06-16T08:15:09.689Z,6.55
2018-06-16T08:17:37.875Z,6.35
2018-06-16T08:20:06.033Z,5.62
2018-06-16T08:22:35.054Z,6.20
2018-06-16T08:25:03.167Z,5.75
2018-06-16T08:27:31.314Z,5.55
2018-06-16T08:29:59.445Z,5.75
2018-06-16T08:32:27.585Z,6.03
2018-06-16T08:34:55.714Z,5.62
2018-06-16T08:37:23.884Z,7.08
2018-06-16T08:39:52.538Z,6.03
2018-06-16T08:42:20.674Z,5.90
2018-06-16T08:44:48.829Z,5.65
2018-06-16T08:47:17.000Z,5.10
2018-06-16T08:49:45.157Z,6.05
2018-06-16T08:52:13.289Z,5.75
2018-06-16T08:54:41.438Z,5.70
2018-06-16T08:57:09.676Z,5.28
2018-06-16T08:59:38.286Z,5.65
2018-06-16T09:02:06.851Z,5.12
2018-06-16T09:04:37.453Z,4.62
2018-06-16T09:07:05.621Z,5.25
2018-06-16T09:09:33.785Z,5.67
2018-06-16T09:12:01.926Z,4.33
2018-06-16T09:14:30.060Z,4.25
2018-06-16T09:16:59.046Z,4.67
2018-06-16T09:19:27.165Z,4.87
2018-06-16T09:21:55.269Z,4.83
2018-06-16T09:24:23.400Z,4.47
2018-06-16T09:26:51.527Z,5.25
2018-06-16T09:29:19.625Z,6.05
2018-06-16T09:31:47.839Z,6.10
2018-06-16T09:34:15.897Z,6.10
2018-06-16T09:36:44.052Z,6.25
2018-06-16T09:39:12.356Z,6.78
2018-06-16T09:41:40.736Z,6.42
2018-06-16T09:44:09.878Z,6.87
2018-06-16T09:46:38.029Z,6.62
2018-06-16T09:49:07.918Z,5.53
2018-06-16T09:51:36.152Z,5.63
2018-06-16T09:54:04.853Z,5.90
2018-06-16T09:56:33.009Z,6.08
2018-06-16T09:59:01.553Z,5.92
2018-06-16T10:01:29.697Z,5.50
2018-06-16T10:03:58.634Z,6.08
2018-06-16T10:06:26.768Z,5.70
2018-06-16T10:08:55.110Z,5.67
2018-06-16T10:11:23.282Z,5.83
2018-06-16T10:13:51.686Z,5.87
2018-06-16T10:16:19.810Z,6.42
2018-06-16T10:18:47.942Z,5.60
2018-06-16T10:21:17.217Z,5.55
2018-06-16T10:23:46.740Z,5.92
2018-06-16T10:26:14.902Z,4.58
2018-06-16T10:28:45.002Z,4.42
2018-06-16T10:31:13.922Z,5.33
2018-06-16T10:33:42.077Z,5.45
2018-06-16T10:36:10.454Z,5.85
2018-06-16T10:38:39.766Z,5.40
2018-06-16T10:41:07.874Z,6.10
2018-06-16T10:43:35.994Z,5.27
2018-06-16T10:46:04.077Z,4.95
2018-06-16T10:48:32.196Z,5.17
2018-06-16T10:51:00.297Z,4.80
2018-06-16T10:53:28.406Z,5.33
2018-06-16T10:55:56.500Z,4.92
2018-06-16T10:58:24.661Z,5.53
2018-06-16T11:00:53.665Z,4.92
2018-06-16T11:03:25.549Z,5.10
2018-06-16T11:05:53.954Z,5.53
2018-06-16T11:08:22.777Z,4.58
2018-06-16T11:10:50.994Z,3.70
2018-06-16T11:13:19.105Z,4.28
2018-06-16T11:15:47.299Z,4.37
2018-06-16T11:18:16.082Z,4.12
2018-06-16T11:20:44.370Z,4.62
2018-06-16T11:23:12.461Z,4.40
2018-06-16T11:25:40.630Z,4.72
2018-06-16T11:28:08.785Z,4.35
2018-06-16T11:30:37.533Z,4.10
2018-06-16T11:33:05.629Z,3.80
2018-06-16T11:35:33.772Z,4.20
2018-06-16T11:38:01.929Z,3.83
2018-06-16T11:40:30.034Z,4.03
2018-06-16T11:42:58.168Z,4.20
2018-06-16T11:45:26.302Z,3.45
2018-06-16T11:47:54.416Z,4.05
2018-06-16T11:50:22.586Z,3.97
2018-06-16T11:52:50.977Z,3.00
2018-06-16T11:55:19.756Z,3.10
2018-06-16T11:57:47.842Z,3.30
2018-06-16T12:00:16.807Z,3.00
2018-06-16T12:02:44.925Z,3.52
2018-06-16T12:05:13.070Z,3.10
2018-06-16T12:07:41.165Z,3.93
2018-06-16T12:10:09.850Z,3.20
2018-06-16T12:12:37.957Z,3.02
2018-06-16T12:15:06.710Z,2.97
2018-06-16T12:17:34.932Z,3.37
2018-06-16T12:20:04.521Z,3.70
2018-06-16T12:22:32.819Z,3.50
2018-06-16T12:25:01.390Z,3.67
2018-06-16T12:27:29.794Z,4.10
2018-06-16T12:29:57.902Z,3.57
2018-06-16T12:32:26.220Z,3.90
2018-06-16T12:34:56.009Z,3.90
2018-06-16T12:37:25.771Z,4.23
2018-06-16T12:39:53.873Z,3.83
2018-06-16T12:42:22.064Z,3.67
2018-06-16T12:44:50.191Z,4.53
2018-06-16T12:47:18.303Z,4.37
2018-06-16T12:49:46.399Z,4.13
2018-06-16T12:52:15.197Z,3.67
2018-06-16T12:54:43.317Z,3.97
2018-06-16T12:57:11.764Z,3.67
2018-06-16T12:59:39.881Z,3.63
2018-06-16T13:02:08.025Z,3.83
2018-06-16T13:04:36.566Z,3.40
2018-06-16T13:07:04.677Z,3.90
2018-06-16T13:09:32.782Z,3.90
2018-06-16T13:12:00.880Z,3.53
2018-06-16T13:14:28.989Z,3.87
2018-06-16T13:16:57.104Z,4.20
2018-06-16T13:19:25.218Z,3.50
2018-06-16T13:21:53.326Z,3.37
2018-06-16T13:24:21.476Z,3.20
2018-06-16T13:26:49.609Z,3.67
2018-06-16T13:29:17.774Z,3.93
2018-06-16T13:31:45.885Z,3.87
2018-06-16T13:34:14.021Z,3.80
2018-06-16T13:36:42.130Z,4.10
2018-06-16T13:39:11.392Z,4.13
2018-06-16T13:41:39.946Z,5.70
2018-06-16T13:44:08.053Z,4.03
2018-06-16T13:46:36.215Z,3.97
2018-06-16T13:49:04.450Z,4.07
2018-06-16T13:51:33.385Z,4.40
2018-06-16T13:54:01.481Z,3.90
2018-06-16T13:56:29.591Z,3.87
2018-06-16T13:58:57.769Z,3.63
2018-06-16T14:01:25.941Z,3.40
2018-06-16T14:03:54.365Z,4.13
2018-06-16T14:06:22.565Z,3.20
2018-06-16T14:08:51.235Z,4.27
2018-06-16T14:11:19.337Z,3.47
2018-06-16T14:13:47.762Z,3.47
2018-06-16T14:16:15.902Z,4.37
2018-06-16T14:18:44.068Z,3.43
2018-06-16T14:21:12.172Z,3.40
2018-06-16T14:23:41.893Z,3.70
2018-06-16T14:26:10.007Z,3.33
2018-06-16T14:28:38.137Z,4.13
2018-06-16T14:31:06.302Z,4.33
2018-06-16T14:33:35.273Z,4.40
2018-06-16T14:36:03.434Z,3.70
2018-06-16T14:38:31.537Z,6.27
2018-06-16T14:40:59.654Z,3.67
2018-06-16T14:43:27.790Z,3.40
2018-06-16T14:45:55.885Z,3.40
2018-06-16T14:48:24.018Z,3.80
2018-06-16T14:50:52.124Z,3.37
2018-06-16T14:53:20.419Z,3.87
2018-06-16T14:55:48.553Z,3.90
2018-06-16T14:58:16.667Z,3.87
2018-06-16T15:00:44.795Z,3.77
2018-06-16T15:03:12.958Z,3.70
2018-06-16T15:05:41.094Z,3.80
2018-06-16T15:08:09.229Z,4.13
2018-06-16T15:10:37.381Z,3.67
2018-06-16T15:13:05.749Z,3.13
2018-06-16T15:15:36.001Z,3.80
2018-06-16T15:18:04.299Z,3.23
2018-06-16T15:20:33.889Z,3.50
2018-06-16T15:23:02.002Z,3.27
2018-06-16T15:25:30.126Z,3.80
2018-06-16T15:27:58.814Z,3.60
2018-06-16T15:30:26.926Z,3.13
2018-06-16T15:32:55.019Z,3.50
2018-06-16T15:35:23.434Z,3.33
2018-06-16T15:37:51.529Z,3.47
2018-06-16T15:40:19.684Z,3.50
2018-06-16T15:42:47.820Z,3.07
2018-06-16T15:45:15.986Z,2.83
2018-06-16T15:47:44.101Z,2.50
2018-06-16T15:50:12.242Z,3.37
2018-06-16T15:52:40.357Z,4.03
2018-06-16T15:55:08.489Z,3.27
2018-06-16T15:57:36.590Z,2.87
2018-06-16T16:00:05.057Z,2.70
2018-06-16T16:02:33.162Z,2.50
2018-06-16T16:05:01.485Z,2.97
2018-06-16T16:07:29.598Z,3.17
2018-06-16T16:09:57.842Z,3.70
2018-06-16T16:12:26.034Z,2.83
2018-06-16T16:14:54.162Z,3.00
2018-06-16T16:17:23.431Z,2.53
2018-06-16T16:19:51.572Z,2.40
2018-06-16T16:22:19.661Z,2.60
2018-06-16T16:24:47.762Z,2.70
2018-06-16T16:27:15.857Z,2.23
2018-06-16T16:29:43.957Z,2.80
2018-06-16T16:32:12.444Z,2.80
2018-06-16T16:34:40.541Z,2.80
2018-06-16T16:37:08.642Z,3.47
2018-06-16T16:39:36.748Z,3.63
2018-06-16T16:42:04.884Z,3.83
2018-06-16T16:44:33.023Z,3.50
2018-06-16T16:47:01.157Z,60.47
2018-06-16T16:49:29.295Z,10.00
2018-06-16T16:51:57.412Z,25.23
2018-06-16T16:54:25.534Z,11.97
2018-06-16T16:56:53.660Z,6.63
2018-06-16T16:59:21.785Z,3.10
2018-06-16T17:01:49.883Z,3.40
2018-06-16T17:04:18.021Z,8.40
2018-06-16T17:06:46.126Z,7.40
2018-06-16T17:09:14.223Z,4.20
2018-06-16T17:11:42.395Z,3.53
2018-06-16T17:14:10.982Z,5.67
2018-06-16T17:16:39.122Z,3.93
2018-06-16T17:19:07.285Z,4.20
2018-06-16T17:21:35.401Z,5.30
2018-06-16T17:24:03.513Z,3.63
2018-06-16T17:26:31.677Z,3.67
2018-06-16T17:29:01.274Z,4.03
2018-06-16T17:31:29.393Z,3.80
2018-06-16T17:33:57.521Z,4.73
2018-06-16T17:36:25.641Z,4.83
2018-06-16T17:38:53.773Z,3.87
2018-06-16T17:41:21.930Z,4.43
2018-06-16T17:43:50.377Z,4.03
2018-06-16T17:46:18.965Z,4.93
2018-06-16T17:48:47.430Z,5.87
2018-06-16T17:51:15.607Z,5.47
2018-06-16T17:53:44.285Z,4.57
2018-06-16T17:56:12.949Z,5.43
2018-06-16T17:58:41.419Z,4.27
2018-06-16T18:01:09.525Z,3.93
2018-06-16T18:03:37.613Z,3.70
2018-06-16T18:06:05.701Z,3.83
2018-06-16T18:08:34.101Z,4.47
2018-06-16T18:11:02.223Z,4.37
2018-06-16T18:13:30.603Z,4.60
2018-06-16T18:15:58.710Z,4.33
2018-06-16T18:18:26.829Z,4.83
2018-06-16T18:20:55.006Z,4.90
2018-06-16T18:23:23.585Z,5.33
2018-06-16T18:25:51.778Z,5.53
2018-06-16T18:28:19.901Z,5.67
2018-06-16T18:30:48.025Z,5.27
2018-06-16T18:33:16.178Z,5.60
2018-06-16T18:35:44.369Z,5.53
2018-06-16T18:38:12.480Z,6.40
2018-06-16T18:40:40.569Z,6.37
2018-06-16T18:43:08.740Z,6.00
2018-06-16T18:45:36.805Z,5.90
2018-06-16T18:48:04.951Z,6.47
2018-06-16T18:50:33.072Z,6.70
2018-06-16T18:53:01.178Z,7.13
2018-06-16T18:55:29.273Z,6.97
2018-06-16T18:57:57.409Z,6.50
2018-06-16T19:00:25.529Z,7.20
2018-06-16T19:02:53.683Z,7.43
2018-06-16T19:05:21.794Z,7.57
2018-06-16T19:07:49.905Z,7.27
2018-06-16T19:10:18.020Z,8.10
2018-06-16T19:12:46.119Z,7.10
2018-06-16T19:15:14.225Z,7.43
2018-06-16T19:17:42.323Z,7.57
2018-06-16T19:20:10.422Z,7.70
2018-06-16T19:22:38.550Z,7.90
2018-06-16T19:25:06.680Z,8.93
2018-06-16T19:27:34.800Z,8.73
2018-06-16T19:30:02.961Z,6.93
2018-06-16T19:32:31.089Z,7.27
2018-06-16T19:34:59.268Z,6.70
2018-06-16T19:37:27.381Z,7.00
2018-06-16T19:39:55.522Z,6.90
2018-06-16T19:42:23.621Z,6.60
2018-06-16T19:44:51.750Z,6.17
2018-06-16T19:47:20.134Z,6.67
2018-06-16T19:49:48.308Z,6.67
2018-06-16T19:52:16.663Z,6.97
2018-06-16T19:54:44.812Z,7.07
2018-06-16T19:57:12.970Z,7.17
2018-06-16T19:59:41.101Z,7.30
2018-06-16T20:02:09.266Z,7.27
2018-06-16T20:04:37.375Z,7.83
2018-06-16T20:07:05.481Z,6.80
2018-06-16T20:09:33.588Z,7.13
2018-06-16T20:12:01.705Z,7.40
2018-06-16T20:14:31.209Z,7.40
2018-06-16T20:16:59.314Z,7.57
2018-06-16T20:19:27.433Z,7.23
2018-06-16T20:21:55.557Z,7.47
2018-06-16T20:24:23.689Z,7.97
2018-06-16T20:26:51.828Z,7.23
2018-06-16T20:29:19.952Z,7.47
2018-06-16T20:31:48.141Z,8.33
2018-06-16T20:34:16.258Z,8.33
2018-06-16T20:36:44.406Z,7.70
2018-06-16T20:39:12.533Z,7.90
2018-06-16T20:41:40.666Z,7.47
2018-06-16T20:44:08.781Z,7.97
2018-06-16T20:46:36.945Z,8.77
2018-06-16T20:49:05.119Z,8.43
2018-06-16T20:51:33.266Z,8.77
2018-06-16T20:54:01.392Z,8.20
2018-06-16T20:56:29.498Z,8.27
2018-06-16T20:58:57.816Z,8.83
2018-06-16T21:01:25.930Z,8.53
2018-06-16T21:03:54.772Z,8.17
2018-06-16T21:06:22.897Z,9.13
2018-06-16T21:08:51.016Z,8.23
2018-06-16T21:11:19.122Z,9.30
2018-06-16T21:13:47.254Z,9.33
2018-06-16T21:16:15.389Z,8.50
2018-06-16T21:18:43.588Z,8.73
2018-06-16T21:21:11.714Z,9.43
2018-06-16T21:23:39.851Z,9.33
2018-06-16T21:26:08.247Z,9.43
2018-06-16T21:28:36.385Z,8.60
2018-06-16T21:31:04.490Z,9.03
2018-06-16T21:33:32.652Z,9.47
2018-06-16T21:36:00.767Z,9.20
2018-06-16T21:38:28.893Z,9.77
2018-06-16T21:40:57.058Z,9.47
2018-06-16T21:43:25.201Z,9.40
2018-06-16T21:45:53.352Z,9.30
2018-06-16T21:48:21.597Z,10.20
2018-06-16T21:50:49.720Z,9.27
2018-06-16T21:53:18.650Z,8.97
2018-06-16T21:55:47.433Z,8.77
2018-06-16T21:58:15.570Z,11.00
2018-06-16T22:00:43.681Z,9.90
2018-06-16T22:03:11.790Z,9.63
2018-06-16T22:05:39.940Z,9.70
2018-06-16T22:08:13.394Z,9.73
2018-06-16T22:10:41.510Z,10.23
2018-06-16T22:13:09.619Z,10.17
2018-06-16T22:15:37.757Z,9.70
2018-06-16T22:18:05.867Z,9.80
2018-06-16T22:20:33.977Z,10.57
2018-06-16T22:23:02.115Z,10.50
2018-06-16T22:25:30.250Z,10.53
2018-06-16T22:27:58.434Z,10.03
2018-06-16T22:30:26.554Z,10.03
2018-06-16T22:32:54.660Z,10.00
2018-06-16T22:35:22.973Z,10.70
2018-06-16T22:37:51.245Z,10.17
2018-06-16T22:40:19.389Z,9.47
2018-06-16T22:42:47.501Z,10.30
2018-06-16T22:45:15.622Z,9.83
2018-06-16T22:47:43.953Z,10.37
2018-06-16T22:50:12.156Z,10.67
2018-06-16T22:52:40.237Z,11.33
2018-06-16T22:55:08.387Z,11.07
2018-06-16T22:57:36.514Z,11.83
2018-06-16T23:00:07.515Z,12.80
2018-06-16T23:02:35.767Z,11.63
2018-06-16T23:05:03.959Z,11.43
2018-06-16T23:07:32.066Z,12.07
2018-06-16T23:10:00.209Z,11.37
2018-06-16T23:12:28.565Z,11.93
2018-06-16T23:14:56.742Z,11.50
2018-06-16T23:17:24.870Z,12.60
2018-06-16T23:19:53.394Z,13.20
2018-06-16T23:22:21.506Z,12.03
2018-06-16T23:24:49.633Z,12.50
2018-06-16T23:27:17.750Z,13.47
2018-06-16T23:29:45.874Z,12.53
2018-06-16T23:32:13.987Z,13.23
2018-06-16T23:34:42.086Z,13.50
2018-06-16T23:37:10.281Z,14.57
2018-06-16T23:39:38.403Z,13.57
2018-06-16T23:42:06.514Z,14.83
2018-06-16T23:44:34.645Z,14.97
2018-06-16T23:47:02.775Z,14.53
2018-06-16T23:49:30.889Z,15.33
2018-06-16T23:51:59.008Z,14.03
2018-06-16T23:54:27.115Z,15.03
2018-06-16T23:56:55.268Z,15.23
2018-06-16T23:59:23.373Z,14.97
